createdAt,value
2022-08-27T00:00:17.438Z,3.80
2022-08-27T00:01:17.449Z,3.70
2022-08-27T00:02:17.534Z,3.40
2022-08-27T00:03:17.419Z,3.70
2022-08-27T00:04:17.449Z,3.30
2022-08-27T00:05:17.381Z,3.30
2022-08-27T00:06:17.377Z,3.40
2022-08-27T00:07:17.388Z,3.00
2022-08-27T00:08:17.349Z,3.70
2022-08-27T00:09:26.435Z,3.60
2022-08-27T00:10:18.323Z,3.10
2022-08-27T00:11:17.327Z,3.40
2022-08-27T00:12:17.310Z,3.90
2022-08-27T00:13:17.311Z,3.50
2022-08-27T00:14:17.293Z,3.80
2022-08-27T00:15:17.959Z,3.70
2022-08-27T00:16:17.390Z,3.30
2022-08-27T00:17:17.257Z,3.60
2022-08-27T00:18:22.041Z,4.60
2022-08-27T00:19:18.292Z,3.80
2022-08-27T00:20:17.232Z,3.80
2022-08-27T00:21:17.229Z,4.10
2022-08-27T00:22:17.201Z,4.10
2022-08-27T00:23:17.187Z,3.90
2022-08-27T00:24:17.219Z,4.30
2022-08-27T00:25:17.184Z,4.30
2022-08-27T00:26:17.177Z,4.40
2022-08-27T00:27:17.137Z,4.40
2022-08-27T00:28:17.146Z,4.00
2022-08-27T00:29:17.127Z,4.30
2022-08-27T00:30:17.123Z,5.30
2022-08-27T00:31:17.131Z,4.30
2022-08-27T00:32:17.101Z,4.80
2022-08-27T00:33:17.067Z,5.10
2022-08-27T00:34:17.073Z,5.40
2022-08-27T00:35:17.045Z,5.10
2022-08-27T00:36:17.036Z,4.70
2022-08-27T00:37:17.029Z,5.20
2022-08-27T00:38:17.028Z,4.90
2022-08-27T00:39:17.014Z,5.20
2022-08-27T00:40:17.064Z,5.40
2022-08-27T00:41:18.367Z,4.70
2022-08-27T00:42:16.967Z,5.30
2022-08-27T00:43:16.972Z,5.40
2022-08-27T00:44:16.951Z,5.60
2022-08-27T00:45:16.962Z,5.20
2022-08-27T00:46:16.952Z,6.40
2022-08-27T00:47:16.916Z,6.50
2022-08-27T00:48:18.390Z,6.00
2022-08-27T00:49:16.891Z,6.40
2022-08-27T00:50:16.882Z,6.40
2022-08-27T00:51:16.875Z,6.20
2022-08-27T00:52:16.880Z,6.30
2022-08-27T00:53:16.849Z,6.20
2022-08-27T00:54:18.940Z,6.60
2022-08-27T00:55:16.836Z,7.00
2022-08-27T00:56:16.833Z,6.10
2022-08-27T00:57:16.806Z,6.80
2022-08-27T00:58:16.795Z,7.10
2022-08-27T00:59:16.782Z,6.60
2022-08-27T01:00:16.770Z,7.20
2022-08-27T01:01:16.850Z,7.20
2022-08-27T01:02:16.809Z,7.00
2022-08-27T01:03:16.740Z,6.80
2022-08-27T01:04:16.753Z,6.70
2022-08-27T01:05:16.717Z,6.10
2022-08-27T01:06:16.701Z,6.40
2022-08-27T01:07:16.698Z,6.40
2022-08-27T01:08:16.686Z,6.70
2022-08-27T01:09:16.684Z,6.10
2022-08-27T01:10:16.666Z,6.40
2022-08-27T01:11:16.652Z,6.30
2022-08-27T01:12:16.638Z,6.60
2022-08-27T01:13:16.632Z,6.60
2022-08-27T01:14:16.625Z,6.20
2022-08-27T01:15:19.947Z,5.80
2022-08-27T01:16:16.668Z,6.70
2022-08-27T01:17:16.590Z,5.80
2022-08-27T01:18:16.568Z,6.50
2022-08-27T01:19:16.560Z,5.70
2022-08-27T01:20:16.568Z,6.10
2022-08-27T01:21:16.543Z,6.60
2022-08-27T01:22:21.750Z,6.50
2022-08-27T01:23:17.518Z,7.20
2022-08-27T01:24:16.493Z,5.70
2022-08-27T01:25:16.488Z,5.50
2022-08-27T01:26:16.502Z,5.60
2022-08-27T01:27:16.466Z,6.50
2022-08-27T01:28:16.461Z,5.10
2022-08-27T01:29:16.449Z,6.10
2022-08-27T01:30:16.432Z,6.20
2022-08-27T01:31:16.480Z,5.80
2022-08-27T01:32:16.406Z,5.80
2022-08-27T01:33:16.406Z,5.40
2022-08-27T01:34:16.399Z,6.00
2022-08-27T01:35:16.400Z,5.80
2022-08-27T01:36:16.373Z,5.40
2022-08-27T01:37:16.372Z,5.20
2022-08-27T01:38:30.012Z,5.10
2022-08-27T01:39:17.337Z,4.80
2022-08-27T01:40:16.324Z,5.40
2022-08-27T01:41:16.307Z,5.30
2022-08-27T01:42:16.301Z,4.80
2022-08-27T01:43:16.290Z,5.20
2022-08-27T01:44:19.438Z,5.70
2022-08-27T01:45:16.275Z,5.20
2022-08-27T01:46:16.295Z,5.10
2022-08-27T01:47:16.252Z,4.90
2022-08-27T01:48:16.240Z,5.30
2022-08-27T01:49:16.221Z,4.60
2022-08-27T01:50:16.208Z,5.30
2022-08-27T01:51:16.200Z,5.20
2022-08-27T01:52:16.196Z,5.20
2022-08-27T01:53:16.177Z,5.80
2022-08-27T01:54:16.182Z,4.80
2022-08-27T01:55:16.147Z,5.70
2022-08-27T01:56:16.136Z,5.60
2022-08-27T01:57:16.147Z,5.40
2022-08-27T01:58:16.134Z,6.00
2022-08-27T01:59:16.108Z,5.40
2022-08-27T02:00:16.104Z,5.40
2022-08-27T02:01:16.130Z,5.60
2022-08-27T02:02:16.130Z,4.70
2022-08-27T02:03:16.101Z,5.60
2022-08-27T02:04:16.056Z,5.50
2022-08-27T02:05:16.039Z,5.50
2022-08-27T02:06:16.034Z,4.90
2022-08-27T02:07:16.024Z,5.60
2022-08-27T02:08:16.001Z,5.40
2022-08-27T02:09:16.012Z,5.90
2022-08-27T02:10:15.983Z,6.20
2022-08-27T02:11:15.969Z,5.70
2022-08-27T02:12:15.957Z,5.70
2022-08-27T02:13:15.952Z,5.80
2022-08-27T02:14:15.936Z,6.40
2022-08-27T02:15:15.934Z,6.80
2022-08-27T02:16:15.993Z,7.20
2022-08-27T02:17:15.903Z,6.70
2022-08-27T02:18:15.925Z,7.00
2022-08-27T02:19:15.893Z,6.10
2022-08-27T02:20:15.904Z,6.80
2022-08-27T02:21:15.889Z,6.60
2022-08-27T02:22:15.852Z,7.40
2022-08-27T02:23:15.848Z,6.70
2022-08-27T02:24:15.830Z,6.90
2022-08-27T02:25:15.815Z,7.60
2022-08-27T02:26:15.800Z,7.60
2022-08-27T02:27:15.792Z,8.80
2022-08-27T02:28:15.793Z,8.50
2022-08-27T02:29:15.784Z,8.50
2022-08-27T02:30:15.772Z,8.40
2022-08-27T02:31:15.832Z,7.90
2022-08-27T02:32:17.731Z,7.70
2022-08-27T02:33:16.747Z,8.00
2022-08-27T02:34:15.721Z,8.20
2022-08-27T02:35:15.703Z,8.20
2022-08-27T02:36:15.693Z,7.60
2022-08-27T02:37:15.701Z,7.70
2022-08-27T02:38:15.686Z,7.90
2022-08-27T02:39:15.696Z,8.60
2022-08-27T02:40:15.795Z,8.20
2022-08-27T02:41:15.642Z,8.70
2022-08-27T02:42:15.642Z,8.60
2022-08-27T02:43:15.634Z,8.60
2022-08-27T02:44:15.601Z,10.90
2022-08-27T02:45:15.602Z,10.70
2022-08-27T02:46:15.658Z,9.50
2022-08-27T02:47:15.571Z,9.60
2022-08-27T02:48:15.556Z,9.90
2022-08-27T02:49:15.551Z,10.70
2022-08-27T02:50:15.530Z,9.20
2022-08-27T02:51:15.535Z,11.50
2022-08-27T02:52:15.539Z,12.60
2022-08-27T02:53:15.505Z,12.10
2022-08-27T02:54:15.497Z,11.40
2022-08-27T02:55:17.331Z,12.30
2022-08-27T02:56:15.482Z,10.50
2022-08-27T02:57:16.462Z,12.60
2022-08-27T02:58:15.446Z,13.00
2022-08-27T02:59:15.455Z,13.30
2022-08-27T03:00:15.432Z,13.30
2022-08-27T03:01:15.425Z,14.00
2022-08-27T03:02:15.486Z,15.20
2022-08-27T03:03:15.389Z,16.10
2022-08-27T03:04:15.392Z,16.50
2022-08-27T03:05:15.386Z,13.90
2022-08-27T03:06:15.362Z,14.70
2022-08-27T03:07:18.905Z,13.70
2022-08-27T03:08:15.347Z,14.10
2022-08-27T03:09:15.335Z,14.10
2022-08-27T03:10:15.336Z,14.40
2022-08-27T03:11:15.317Z,13.30
2022-08-27T03:12:15.296Z,14.40
2022-08-27T03:13:15.306Z,13.00
2022-08-27T03:14:15.280Z,14.50
2022-08-27T03:15:15.264Z,13.30
2022-08-27T03:16:15.355Z,12.70
2022-08-27T03:17:15.231Z,12.90
2022-08-27T03:18:15.221Z,13.30
2022-08-27T03:19:19.841Z,14.10
2022-08-27T03:20:16.205Z,15.60
2022-08-27T03:21:15.198Z,17.00
2022-08-27T03:22:15.185Z,16.80
2022-08-27T03:23:15.173Z,16.70
2022-08-27T03:24:15.164Z,15.90
2022-08-27T03:25:15.145Z,18.90
2022-08-27T03:26:15.144Z,16.50
2022-08-27T03:27:15.121Z,17.50
2022-08-27T03:28:22.796Z,18.10
2022-08-27T03:29:16.108Z,17.40
2022-08-27T03:30:15.087Z,17.40
2022-08-27T03:31:15.197Z,17.60
2022-08-27T03:32:15.094Z,16.70
2022-08-27T03:33:15.060Z,16.20
2022-08-27T03:34:15.043Z,17.80
2022-08-27T03:35:15.036Z,17.00
2022-08-27T03:36:15.032Z,16.90
2022-08-27T03:37:15.008Z,17.40
2022-08-27T03:38:15.010Z,16.50
2022-08-27T03:39:15.000Z,16.70
2022-08-27T03:40:15.086Z,16.80
2022-08-27T03:41:14.962Z,17.80
2022-08-27T03:42:14.967Z,17.80
2022-08-27T03:43:14.943Z,15.70
2022-08-27T03:44:21.719Z,15.50
2022-08-27T03:45:15.926Z,16.20
2022-08-27T03:46:15.005Z,16.40
2022-08-27T03:47:14.909Z,15.90
2022-08-27T03:48:14.884Z,16.50
2022-08-27T03:49:14.874Z,16.50
2022-08-27T03:50:14.872Z,15.90
2022-08-27T03:51:14.858Z,15.80
2022-08-27T03:52:14.863Z,16.20
2022-08-27T03:53:14.848Z,15.90
2022-08-27T03:54:14.873Z,16.50
2022-08-27T03:55:14.806Z,15.90
2022-08-27T03:56:14.804Z,16.30
2022-08-27T03:57:14.791Z,16.80
2022-08-27T03:58:14.780Z,15.30
2022-08-27T03:59:14.773Z,15.90
2022-08-27T04:00:14.763Z,14.80
2022-08-27T04:01:14.839Z,14.80
2022-08-27T04:02:14.863Z,15.80
2022-08-27T04:03:14.808Z,15.40
2022-08-27T04:04:14.712Z,16.20
2022-08-27T04:05:14.705Z,14.10
2022-08-27T04:06:14.690Z,16.00
2022-08-27T04:07:14.679Z,15.70
2022-08-27T04:08:14.680Z,17.50
2022-08-27T04:09:14.703Z,18.00
2022-08-27T04:10:15.582Z,18.60
2022-08-27T04:11:14.627Z,17.80
2022-08-27T04:12:14.617Z,17.70
2022-08-27T04:13:14.612Z,18.10
2022-08-27T04:14:24.940Z,18.10
2022-08-27T04:15:15.605Z,17.20
2022-08-27T04:16:14.653Z,17.60
2022-08-27T04:17:14.567Z,18.30
2022-08-27T04:18:14.554Z,16.10
2022-08-27T04:19:14.554Z,17.70
2022-08-27T04:20:34.570Z,17.20
2022-08-27T04:21:15.522Z,18.80
2022-08-27T04:22:14.521Z,19.40
2022-08-27T04:23:14.507Z,19.30
2022-08-27T04:24:14.494Z,17.10
2022-08-27T04:25:14.487Z,18.30
2022-08-27T04:26:14.494Z,17.60
2022-08-27T04:27:14.453Z,18.70
2022-08-27T04:28:14.452Z,16.80
2022-08-27T04:29:14.434Z,18.70
2022-08-27T04:30:14.436Z,17.10
2022-08-27T04:31:16.595Z,17.70
2022-08-27T04:32:14.403Z,17.80
2022-08-27T04:33:14.413Z,16.60
2022-08-27T04:34:14.393Z,16.40
2022-08-27T04:35:14.366Z,16.10
2022-08-27T04:36:14.349Z,17.50
2022-08-27T04:37:14.340Z,15.80
2022-08-27T04:38:14.349Z,17.60
2022-08-27T04:39:14.316Z,17.30
2022-08-27T04:40:14.384Z,17.00
2022-08-27T04:41:14.302Z,16.70
2022-08-27T04:42:14.288Z,18.00
2022-08-27T04:43:14.308Z,17.60
2022-08-27T04:44:14.261Z,16.50
2022-08-27T04:45:14.254Z,16.10
2022-08-27T04:46:14.266Z,18.20
2022-08-27T04:47:14.231Z,18.00
2022-08-27T04:48:14.214Z,17.80
2022-08-27T04:49:14.586Z,17.00
2022-08-27T04:50:14.209Z,15.80
2022-08-27T04:51:14.591Z,17.80
2022-08-27T04:52:14.222Z,17.20
2022-08-27T04:53:14.185Z,16.70
2022-08-27T04:54:14.156Z,17.70
2022-08-27T04:55:14.150Z,16.70
2022-08-27T04:56:14.496Z,17.10
2022-08-27T04:57:14.126Z,17.60
2022-08-27T04:58:14.102Z,16.40
2022-08-27T04:59:14.101Z,17.50
2022-08-27T05:00:14.103Z,15.20
2022-08-27T05:01:14.130Z,15.70
2022-08-27T05:02:14.073Z,15.70
2022-08-27T05:03:14.053Z,15.90
2022-08-27T05:04:14.057Z,16.50
2022-08-27T05:05:16.061Z,15.30
2022-08-27T05:06:14.039Z,15.70
2022-08-27T05:07:14.009Z,16.30
2022-08-27T05:08:14.026Z,15.40
2022-08-27T05:09:13.995Z,15.50
2022-08-27T05:10:13.970Z,16.50
2022-08-27T05:11:13.978Z,15.20
2022-08-27T05:12:13.955Z,15.10
2022-08-27T05:13:13.966Z,16.50
2022-08-27T05:14:13.935Z,17.00
2022-08-27T05:15:13.928Z,16.70
2022-08-27T05:16:13.989Z,14.70
2022-08-27T05:17:13.944Z,15.30
2022-08-27T05:18:13.905Z,15.10
2022-08-27T05:19:13.869Z,15.70
2022-08-27T05:20:13.867Z,16.30
2022-08-27T05:21:13.853Z,16.70
2022-08-27T05:22:13.872Z,14.40
2022-08-27T05:23:13.853Z,14.40
2022-08-27T05:24:13.828Z,13.30
2022-08-27T05:25:13.856Z,15.10
2022-08-27T05:26:13.793Z,15.30
2022-08-27T05:27:13.777Z,14.30
2022-08-27T05:28:13.783Z,14.90
2022-08-27T05:29:13.769Z,14.40
2022-08-27T05:30:13.820Z,13.60
2022-08-27T05:31:13.851Z,13.20
2022-08-27T05:32:13.755Z,13.00
2022-08-27T05:33:13.741Z,14.50
2022-08-27T05:34:14.227Z,15.30
2022-08-27T05:35:15.821Z,13.10
2022-08-27T05:36:13.683Z,13.20
2022-08-27T05:37:13.666Z,13.90
2022-08-27T05:38:13.675Z,13.60
2022-08-27T05:39:13.683Z,14.20
2022-08-27T05:40:13.722Z,12.40
2022-08-27T05:41:13.645Z,13.30
2022-08-27T05:42:13.651Z,13.40
2022-08-27T05:43:13.618Z,12.40
2022-08-27T05:44:39.633Z,11.80
2022-08-27T05:45:14.874Z,12.60
2022-08-27T05:46:13.645Z,13.20
2022-08-27T05:47:13.595Z,12.00
2022-08-27T05:48:13.560Z,11.90
2022-08-27T05:49:13.571Z,12.20
2022-08-27T05:50:13.536Z,12.30
2022-08-27T05:51:13.526Z,12.00
2022-08-27T05:52:13.526Z,11.20
2022-08-27T05:53:13.508Z,11.40
2022-08-27T05:54:13.506Z,12.40
2022-08-27T05:55:13.486Z,11.70
2022-08-27T05:56:13.462Z,13.60
2022-08-27T05:57:13.465Z,13.70
2022-08-27T05:58:13.449Z,13.50
2022-08-27T05:59:13.444Z,13.40
2022-08-27T06:00:15.655Z,12.70
2022-08-27T06:01:13.421Z,13.30
2022-08-27T06:02:13.454Z,13.20
2022-08-27T06:03:13.387Z,12.70
2022-08-27T06:04:18.117Z,12.60
2022-08-27T06:05:13.418Z,12.80
2022-08-27T06:06:13.360Z,13.40
2022-08-27T06:07:13.340Z,12.70
2022-08-27T06:08:13.325Z,12.90
2022-08-27T06:09:13.326Z,13.50
2022-08-27T06:10:13.336Z,12.40
2022-08-27T06:11:13.319Z,11.80
2022-08-27T06:12:13.302Z,13.10
2022-08-27T06:13:13.269Z,12.20
2022-08-27T06:14:13.257Z,12.60
2022-08-27T06:15:13.248Z,12.70
2022-08-27T06:16:13.295Z,13.70
2022-08-27T06:17:13.234Z,14.10
2022-08-27T06:18:13.229Z,12.90
2022-08-27T06:19:13.217Z,13.80
2022-08-27T06:20:13.185Z,14.00
2022-08-27T06:21:13.192Z,12.40
2022-08-27T06:22:13.207Z,14.30
2022-08-27T06:23:13.164Z,14.10
2022-08-27T06:24:13.149Z,14.40
2022-08-27T06:25:13.157Z,14.30
2022-08-27T06:26:13.125Z,14.90
2022-08-27T06:27:13.127Z,13.50
2022-08-27T06:28:13.123Z,14.10
2022-08-27T06:29:13.090Z,14.00
2022-08-27T06:30:17.010Z,15.10
2022-08-27T06:31:13.161Z,13.30
2022-08-27T06:32:13.100Z,13.60
2022-08-27T06:33:13.064Z,13.30
2022-08-27T06:34:13.071Z,13.00
2022-08-27T06:35:13.040Z,13.20
2022-08-27T06:36:13.041Z,12.30
2022-08-27T06:37:13.007Z,12.40
2022-08-27T06:38:13.004Z,13.40
2022-08-27T06:39:13.023Z,13.50
2022-08-27T06:40:13.086Z,11.10
2022-08-27T06:41:16.383Z,12.20
2022-08-27T06:42:13.993Z,13.00
2022-08-27T06:43:12.938Z,12.30
2022-08-27T06:44:12.951Z,13.90
2022-08-27T06:45:12.947Z,13.10
2022-08-27T06:46:13.055Z,13.00
2022-08-27T06:47:12.886Z,12.80
2022-08-27T06:48:13.026Z,12.10
2022-08-27T06:49:12.874Z,12.80
2022-08-27T06:50:16.411Z,11.60
2022-08-27T06:51:13.877Z,12.00
2022-08-27T06:52:12.841Z,11.90
2022-08-27T06:53:12.828Z,12.20
2022-08-27T06:54:12.825Z,11.30
2022-08-27T06:55:12.807Z,11.50
2022-08-27T06:56:12.830Z,11.50
2022-08-27T06:57:12.785Z,10.60
2022-08-27T06:58:12.893Z,10.80
2022-08-27T06:59:12.766Z,11.30
2022-08-27T07:00:12.764Z,11.40
2022-08-27T07:01:12.784Z,10.30
2022-08-27T07:02:12.802Z,11.20
2022-08-27T07:03:12.703Z,10.60
2022-08-27T07:04:12.706Z,11.50
2022-08-27T07:05:12.709Z,12.00
2022-08-27T07:06:12.676Z,12.30
2022-08-27T07:07:12.678Z,11.10
2022-08-27T07:08:12.832Z,12.40
2022-08-27T07:09:12.642Z,10.90
2022-08-27T07:10:12.645Z,12.80
2022-08-27T07:11:12.616Z,11.70
2022-08-27T07:12:12.614Z,11.80
2022-08-27T07:13:12.619Z,11.50
2022-08-27T07:14:12.623Z,11.60
2022-08-27T07:15:12.586Z,12.70
2022-08-27T07:16:12.641Z,11.50
2022-08-27T07:17:16.451Z,11.40
2022-08-27T07:18:12.727Z,11.20
2022-08-27T07:19:12.553Z,12.80
2022-08-27T07:20:12.520Z,11.30
2022-08-27T07:21:12.524Z,11.10
2022-08-27T07:22:12.518Z,11.30
2022-08-27T07:23:12.491Z,11.40
2022-08-27T07:24:12.504Z,10.90
2022-08-27T07:25:12.465Z,10.40
2022-08-27T07:26:12.497Z,11.40
2022-08-27T07:27:12.465Z,11.10
2022-08-27T07:28:12.594Z,10.70
2022-08-27T07:29:12.428Z,11.60
2022-08-27T07:30:12.409Z,10.50
2022-08-27T07:31:13.123Z,10.60
2022-08-27T07:32:12.403Z,10.30
2022-08-27T07:33:12.378Z,11.50
2022-08-27T07:34:12.369Z,10.20
2022-08-27T07:35:12.362Z,10.40
2022-08-27T07:36:12.350Z,10.90
2022-08-27T07:37:12.339Z,10.80
2022-08-27T07:38:12.550Z,10.50
2022-08-27T07:39:12.312Z,11.30
2022-08-27T07:40:12.363Z,11.30
2022-08-27T07:41:12.283Z,11.30
2022-08-27T07:42:12.281Z,10.80
2022-08-27T07:43:12.294Z,10.40
2022-08-27T07:44:12.254Z,10.60
2022-08-27T07:45:12.233Z,9.80
2022-08-27T07:46:12.325Z,9.80
2022-08-27T07:47:12.259Z,9.50
2022-08-27T07:48:12.461Z,8.80
2022-08-27T07:49:12.196Z,8.80
2022-08-27T07:50:12.190Z,8.40
2022-08-27T07:51:12.189Z,8.70
2022-08-27T07:52:12.194Z,8.50
2022-08-27T07:53:12.171Z,8.50
2022-08-27T07:54:12.151Z,8.50
2022-08-27T07:55:12.155Z,7.60
2022-08-27T07:56:12.153Z,8.10
2022-08-27T07:57:12.121Z,8.10
2022-08-27T07:58:14.802Z,7.20
2022-08-27T07:59:13.118Z,7.50
2022-08-27T08:00:12.095Z,7.50
2022-08-27T08:01:12.145Z,7.40
2022-08-27T08:02:12.129Z,7.10
2022-08-27T08:03:12.045Z,7.30
2022-08-27T08:04:12.042Z,6.80
2022-08-27T08:05:12.044Z,6.60
2022-08-27T08:06:12.011Z,7.40
2022-08-27T08:07:12.026Z,6.30
2022-08-27T08:08:12.175Z,7.20
2022-08-27T08:09:11.983Z,6.50
2022-08-27T08:10:11.971Z,6.30
2022-08-27T08:11:11.948Z,6.90
2022-08-27T08:12:11.977Z,7.10
2022-08-27T08:13:11.980Z,6.60
2022-08-27T08:14:11.952Z,6.70
2022-08-27T08:15:11.913Z,6.80
2022-08-27T08:16:11.914Z,6.80
2022-08-27T08:17:11.985Z,6.50
2022-08-27T08:18:12.044Z,5.90
2022-08-27T08:19:11.851Z,7.60
2022-08-27T08:20:27.533Z,7.20
2022-08-27T08:21:12.852Z,6.80
2022-08-27T08:22:11.825Z,7.30
2022-08-27T08:23:11.815Z,6.90
2022-08-27T08:24:11.831Z,7.70
2022-08-27T08:25:12.852Z,8.10
2022-08-27T08:26:11.795Z,9.00
2022-08-27T08:27:11.806Z,8.00
2022-08-27T08:28:12.086Z,8.20
2022-08-27T08:29:13.760Z,8.20
2022-08-27T08:30:12.757Z,7.10
2022-08-27T08:31:11.768Z,7.90
2022-08-27T08:32:11.705Z,8.20
2022-08-27T08:33:11.732Z,7.80
2022-08-27T08:34:11.699Z,8.00
2022-08-27T08:35:11.683Z,8.80
2022-08-27T08:36:11.688Z,8.50
2022-08-27T08:37:11.656Z,8.00
2022-08-27T08:38:11.893Z,7.80
2022-08-27T08:39:11.645Z,9.10
2022-08-27T08:40:11.750Z,8.40
2022-08-27T08:41:11.611Z,8.20
2022-08-27T08:42:11.626Z,7.70
2022-08-27T08:43:11.592Z,8.60
2022-08-27T08:44:11.592Z,8.00
2022-08-27T08:45:11.589Z,8.40
2022-08-27T08:46:11.627Z,7.90
2022-08-27T08:47:11.538Z,7.70
2022-08-27T08:48:11.861Z,8.30
2022-08-27T08:49:11.740Z,8.20
2022-08-27T08:50:11.533Z,8.30
2022-08-27T08:51:11.517Z,8.60
2022-08-27T08:52:11.492Z,8.80
2022-08-27T08:53:12.470Z,7.70
2022-08-27T08:54:11.473Z,8.40
2022-08-27T08:55:11.469Z,8.10
2022-08-27T08:56:11.447Z,8.00
2022-08-27T08:57:11.470Z,9.30
2022-08-27T08:58:11.677Z,8.70
2022-08-27T08:59:11.411Z,8.40
2022-08-27T09:00:11.397Z,7.90
2022-08-27T09:01:11.455Z,8.10
2022-08-27T09:02:13.410Z,7.90
2022-08-27T09:03:11.405Z,8.10
2022-08-27T09:04:11.460Z,7.40
2022-08-27T09:05:11.343Z,8.60
2022-08-27T09:06:11.629Z,8.10
2022-08-27T09:07:11.318Z,7.40
2022-08-27T09:08:32.043Z,8.50
2022-08-27T09:09:12.328Z,7.70
2022-08-27T09:10:11.341Z,7.50
2022-08-27T09:11:11.283Z,8.20
2022-08-27T09:12:11.312Z,7.70
2022-08-27T09:13:11.277Z,7.50
2022-08-27T09:14:13.441Z,7.00
2022-08-27T09:15:12.519Z,7.20
2022-08-27T09:16:11.256Z,8.30
2022-08-27T09:17:11.661Z,7.40
2022-08-27T09:18:14.052Z,7.40
2022-08-27T09:19:11.411Z,7.40
2022-08-27T09:20:13.034Z,7.50
2022-08-27T09:21:11.155Z,7.50
2022-08-27T09:22:11.191Z,7.60
2022-08-27T09:23:11.159Z,7.40
2022-08-27T09:24:11.144Z,7.70
2022-08-27T09:25:11.120Z,9.20
2022-08-27T09:26:11.100Z,8.20
2022-08-27T09:27:11.121Z,8.00
2022-08-27T09:28:11.344Z,7.70
2022-08-27T09:29:11.080Z,7.60
2022-08-27T09:30:11.115Z,8.30
2022-08-27T09:31:11.118Z,8.40
2022-08-27T09:32:11.070Z,7.30
2022-08-27T09:33:11.031Z,7.80
2022-08-27T09:34:11.022Z,7.30
2022-08-27T09:35:11.011Z,8.40
2022-08-27T09:36:11.029Z,8.60
2022-08-27T09:37:11.015Z,8.30
2022-08-27T09:38:11.178Z,9.00
2022-08-27T09:39:10.964Z,8.90
2022-08-27T09:40:13.408Z,8.80
2022-08-27T09:41:10.970Z,9.10
2022-08-27T09:42:10.966Z,9.50
2022-08-27T09:43:10.918Z,9.70
2022-08-27T09:44:10.907Z,9.60
2022-08-27T09:45:11.884Z,9.90
2022-08-27T09:46:10.953Z,9.60
2022-08-27T09:47:10.893Z,9.40
2022-08-27T09:48:11.105Z,9.30
2022-08-27T09:49:10.851Z,8.50
2022-08-27T09:50:10.881Z,9.40
2022-08-27T09:51:10.852Z,9.10
2022-08-27T09:52:10.825Z,9.90
2022-08-27T09:53:10.802Z,9.00
2022-08-27T09:54:10.811Z,9.40
2022-08-27T09:55:10.776Z,10.00
2022-08-27T09:56:10.792Z,10.10
2022-08-27T09:57:10.761Z,9.70
2022-08-27T09:58:10.977Z,9.40
2022-08-27T09:59:10.739Z,9.60
2022-08-27T10:00:10.760Z,10.30
2022-08-27T10:01:10.754Z,10.40
2022-08-27T10:02:12.195Z,8.20
2022-08-27T10:03:10.690Z,9.50
2022-08-27T10:04:10.747Z,8.30
2022-08-27T10:05:10.708Z,8.40
2022-08-27T10:06:10.687Z,8.60
2022-08-27T10:07:10.645Z,9.40
2022-08-27T10:08:10.762Z,8.90
2022-08-27T10:09:10.661Z,8.40
2022-08-27T10:10:10.671Z,9.80
2022-08-27T10:11:10.619Z,7.90
2022-08-27T10:12:10.585Z,7.60
2022-08-27T10:13:10.819Z,8.40
2022-08-27T10:14:10.598Z,8.70
2022-08-27T10:15:10.566Z,8.20
2022-08-27T10:16:10.594Z,8.60
2022-08-27T10:17:10.543Z,7.60
2022-08-27T10:18:10.707Z,8.60
2022-08-27T10:19:10.537Z,8.20
2022-08-27T10:20:10.534Z,7.10
2022-08-27T10:21:10.504Z,7.60
2022-08-27T10:22:10.487Z,7.40
2022-08-27T10:23:10.466Z,7.10
2022-08-27T10:24:10.483Z,7.80
2022-08-27T10:25:10.471Z,6.90
2022-08-27T10:26:10.442Z,7.80
2022-08-27T10:27:10.424Z,7.60
2022-08-27T10:28:10.548Z,8.50
2022-08-27T10:29:10.423Z,8.20
2022-08-27T10:30:10.411Z,7.90
2022-08-27T10:31:10.377Z,7.60
2022-08-27T10:32:10.416Z,8.60
2022-08-27T10:33:10.615Z,8.00
2022-08-27T10:34:12.342Z,8.70
2022-08-27T10:35:10.349Z,8.30
2022-08-27T10:36:10.573Z,8.80
2022-08-27T10:37:10.312Z,8.00
2022-08-27T10:38:10.493Z,8.80
2022-08-27T10:39:10.298Z,8.50
2022-08-27T10:40:10.453Z,9.20
2022-08-27T10:41:10.263Z,9.70
2022-08-27T10:42:10.249Z,9.80
2022-08-27T10:43:10.264Z,10.20
2022-08-27T10:44:10.236Z,9.30
2022-08-27T10:45:10.221Z,9.10
2022-08-27T10:46:10.254Z,9.00
2022-08-27T10:47:10.200Z,9.60
2022-08-27T10:48:10.495Z,8.70
2022-08-27T10:49:10.197Z,8.70
2022-08-27T10:50:10.187Z,9.00
2022-08-27T10:51:10.151Z,9.20
2022-08-27T10:52:10.145Z,8.90
2022-08-27T10:53:10.141Z,8.70
2022-08-27T10:54:10.134Z,9.50
2022-08-27T10:55:10.112Z,9.30
2022-08-27T10:56:10.104Z,9.50
2022-08-27T10:57:28.902Z,9.00
2022-08-27T10:58:11.196Z,9.30
2022-08-27T10:59:10.092Z,9.60
2022-08-27T11:00:10.055Z,8.90
2022-08-27T11:01:10.141Z,10.00
2022-08-27T11:02:10.082Z,9.50
2022-08-27T11:03:10.058Z,10.20
2022-08-27T11:04:10.040Z,11.00
2022-08-27T11:05:09.992Z,10.80
2022-08-27T11:06:09.996Z,10.40
2022-08-27T11:07:10.000Z,9.50
2022-08-27T11:08:10.191Z,10.30
2022-08-27T11:09:09.948Z,8.80
2022-08-27T11:10:09.938Z,9.70
2022-08-27T11:11:51.749Z,9.30
2022-08-27T11:12:14.284Z,10.20
2022-08-27T11:13:09.941Z,10.60
2022-08-27T11:14:09.906Z,9.00
2022-08-27T11:15:12.871Z,10.70
2022-08-27T11:16:09.989Z,9.50
2022-08-27T11:17:09.872Z,9.80
2022-08-27T11:18:10.039Z,9.90
2022-08-27T11:19:09.850Z,9.80
2022-08-27T11:20:09.844Z,9.30
2022-08-27T11:21:09.845Z,8.90
2022-08-27T11:22:12.697Z,10.10
2022-08-27T11:23:10.806Z,9.30
2022-08-27T11:24:09.791Z,8.10
2022-08-27T11:25:09.778Z,9.20
2022-08-27T11:26:09.791Z,9.10
2022-08-27T11:27:09.774Z,10.20
2022-08-27T11:28:09.897Z,8.70
2022-08-27T11:29:09.872Z,8.90
2022-08-27T11:30:09.758Z,8.50
2022-08-27T11:31:09.760Z,8.80
2022-08-27T11:32:09.719Z,8.40
2022-08-27T11:33:14.233Z,8.90
2022-08-27T11:34:09.674Z,9.50
2022-08-27T11:35:09.659Z,8.80
2022-08-27T11:36:09.655Z,9.30
2022-08-27T11:37:09.656Z,9.00
2022-08-27T11:38:09.698Z,9.50
2022-08-27T11:39:09.621Z,9.70
2022-08-27T11:40:09.713Z,9.00
2022-08-27T11:41:09.613Z,8.40
2022-08-27T11:42:09.616Z,7.90
2022-08-27T11:43:09.568Z,9.50
2022-08-27T11:44:09.562Z,8.30
2022-08-27T11:45:09.563Z,8.50
2022-08-27T11:46:09.565Z,9.00
2022-08-27T11:47:09.558Z,9.20
2022-08-27T11:48:09.627Z,8.60
2022-08-27T11:49:09.506Z,7.90
2022-08-27T11:50:09.532Z,8.40
2022-08-27T11:51:09.493Z,8.30
2022-08-27T11:52:09.462Z,8.30
2022-08-27T11:53:09.462Z,8.40
2022-08-27T11:54:09.489Z,8.00
2022-08-27T11:55:09.453Z,7.70
2022-08-27T11:56:09.437Z,7.70
2022-08-27T11:57:09.412Z,7.30
2022-08-27T11:58:09.464Z,7.60
2022-08-27T11:59:09.417Z,8.60
2022-08-27T12:00:09.436Z,7.20
2022-08-27T12:01:09.394Z,8.20
2022-08-27T12:02:09.365Z,7.40
2022-08-27T12:03:09.446Z,6.70
2022-08-27T12:04:09.430Z,6.80
2022-08-27T12:05:09.341Z,6.30
2022-08-27T12:06:09.348Z,7.00
2022-08-27T12:07:09.294Z,6.20
2022-08-27T12:08:09.398Z,6.70
2022-08-27T12:09:09.297Z,6.70
2022-08-27T12:10:09.331Z,6.30
2022-08-27T12:11:09.260Z,5.80
2022-08-27T12:12:09.270Z,6.30
2022-08-27T12:13:09.229Z,6.60
2022-08-27T12:14:09.233Z,6.70
2022-08-27T12:15:09.224Z,6.90
2022-08-27T12:16:09.243Z,6.40
2022-08-27T12:17:09.201Z,6.80
2022-08-27T12:18:09.274Z,6.40
2022-08-27T12:19:09.186Z,6.40
2022-08-27T12:20:09.228Z,6.60
2022-08-27T12:21:09.146Z,6.00
2022-08-27T12:22:09.144Z,6.30
2022-08-27T12:23:09.172Z,6.30
2022-08-27T12:24:09.139Z,6.40
2022-08-27T12:25:09.847Z,5.90
2022-08-27T12:26:09.089Z,6.10
2022-08-27T12:27:09.083Z,7.00
2022-08-27T12:28:09.315Z,6.30
2022-08-27T12:29:09.081Z,6.30
2022-08-27T12:30:09.047Z,6.30
2022-08-27T12:31:09.159Z,7.50
2022-08-27T12:32:09.060Z,6.30
2022-08-27T12:33:09.035Z,6.60
2022-08-27T12:34:09.023Z,7.00
2022-08-27T12:35:08.996Z,7.10
2022-08-27T12:36:08.997Z,6.50
2022-08-27T12:37:08.965Z,6.50
2022-08-27T12:38:08.992Z,6.30
2022-08-27T12:39:08.963Z,6.00
2022-08-27T12:40:09.007Z,6.10
2022-08-27T12:41:08.942Z,6.00
2022-08-27T12:42:08.943Z,6.00
2022-08-27T12:43:08.914Z,6.10
2022-08-27T12:44:08.908Z,6.10
2022-08-27T12:45:08.880Z,6.00
2022-08-27T12:46:08.914Z,5.90
2022-08-27T12:47:08.947Z,6.20
2022-08-27T12:48:09.027Z,6.30
2022-08-27T12:49:36.725Z,5.60
2022-08-27T12:50:09.844Z,5.60
2022-08-27T12:51:08.818Z,5.90
2022-08-27T12:52:08.817Z,5.80
2022-08-27T12:53:08.819Z,5.60
2022-08-27T12:54:08.780Z,6.70
2022-08-27T12:55:08.792Z,5.80
2022-08-27T12:56:08.779Z,5.00
2022-08-27T12:57:08.762Z,5.40
2022-08-27T12:58:11.153Z,4.50
2022-08-27T12:59:10.664Z,4.40
2022-08-27T13:00:08.752Z,4.60
2022-08-27T13:01:08.890Z,4.90
2022-08-27T13:02:08.918Z,4.80
2022-08-27T13:03:08.683Z,4.70
2022-08-27T13:04:08.681Z,4.40
2022-08-27T13:05:10.551Z,4.90
2022-08-27T13:06:08.665Z,4.50
2022-08-27T13:07:08.675Z,3.60
2022-08-27T13:08:08.634Z,4.70